createdAt,value
2023-04-08T00:00:52.365Z,11.40
2023-04-08T00:05:55.146Z,10.67
2023-04-08T00:10:58.007Z,11.00
2023-04-08T00:16:01.965Z,11.07
2023-04-08T00:21:04.907Z,11.23
2023-04-08T00:26:07.584Z,11.87
2023-04-08T00:31:11.745Z,12.70
2023-04-08T00:36:14.565Z,13.07
2023-04-08T00:41:17.287Z,14.10
2023-04-08T00:46:21.681Z,13.93
2023-04-08T00:51:24.448Z,12.90
2023-04-08T00:56:27.698Z,13.47
2023-04-08T01:01:36.038Z,15.20
2023-04-08T01:06:46.901Z,15.03
2023-04-08T01:11:52.710Z,15.60
2023-04-08T01:16:59.660Z,15.23
2023-04-08T01:22:10.771Z,14.47
2023-04-08T01:27:15.891Z,14.80
2023-04-08T01:32:19.226Z,14.53
2023-04-08T01:37:23.129Z,13.60
2023-04-08T01:42:29.419Z,14.70
2023-04-08T01:47:32.646Z,14.57
2023-04-08T01:52:38.400Z,14.13
2023-04-08T01:57:45.244Z,14.27
2023-04-08T02:02:49.112Z,13.23
2023-04-08T02:07:52.054Z,12.80
2023-04-08T02:12:57.932Z,12.83
2023-04-08T02:18:08.408Z,12.00
2023-04-08T02:23:16.325Z,12.43
2023-04-08T02:28:21.478Z,12.87
2023-04-08T02:33:24.711Z,10.60
2023-04-08T02:38:29.805Z,9.80
2023-04-08T02:43:33.835Z,10.47
2023-04-08T02:48:36.604Z,9.43
2023-04-08T02:53:39.366Z,9.20
2023-04-08T02:58:43.429Z,8.57
2023-04-08T03:03:46.526Z,9.53
2023-04-08T03:08:49.514Z,8.03
2023-04-08T03:13:53.687Z,8.27
2023-04-08T03:18:56.442Z,8.30
2023-04-08T03:23:59.198Z,7.90
2023-04-08T03:29:03.218Z,7.77
2023-04-08T03:34:06.095Z,7.03
2023-04-08T03:39:08.767Z,7.17
2023-04-08T03:44:12.775Z,7.43
2023-04-08T03:49:15.618Z,6.47
2023-04-08T03:54:18.350Z,6.87
2023-04-08T03:59:23.022Z,6.37
2023-04-08T04:04:25.774Z,6.10
2023-04-08T04:09:28.654Z,5.97
2023-04-08T04:14:32.627Z,5.63
2023-04-08T04:19:35.396Z,5.63
2023-04-08T04:24:38.019Z,5.57
2023-04-08T04:29:41.975Z,6.30
2023-04-08T04:34:44.687Z,5.97
2023-04-08T04:39:47.422Z,5.90
2023-04-08T04:44:51.357Z,6.47
2023-04-08T04:49:54.021Z,6.13
2023-04-08T04:54:58.578Z,6.70
2023-04-08T05:00:05.146Z,6.67
2023-04-08T05:05:09.171Z,6.67
2023-04-08T05:10:12.092Z,6.97
2023-04-08T05:15:16.458Z,6.30
2023-04-08T05:20:20.896Z,6.73
2023-04-08T05:25:23.656Z,5.63
2023-04-08T05:30:27.623Z,4.80
2023-04-08T05:35:30.338Z,5.07
2023-04-08T05:40:33.196Z,5.00
2023-04-08T05:45:39.264Z,5.67
2023-04-08T05:50:44.258Z,5.53
2023-04-08T05:55:46.997Z,5.57
2023-04-08T06:00:50.956Z,6.30
2023-04-08T06:05:53.598Z,5.47
2023-04-08T06:10:56.519Z,5.77
2023-04-08T06:16:10.848Z,6.10
2023-04-08T06:21:13.589Z,5.03
2023-04-08T06:26:16.464Z,5.77
2023-04-08T06:31:20.842Z,5.30
2023-04-08T06:36:23.562Z,5.27
2023-04-08T06:41:26.279Z,6.67
2023-04-08T06:46:30.392Z,8.83
2023-04-08T06:51:33.342Z,8.27
2023-04-08T06:56:36.042Z,8.47
2023-04-08T07:01:40.125Z,8.80
2023-04-08T07:06:42.844Z,9.87
2023-04-08T07:11:46.050Z,8.70
2023-04-08T07:16:50.093Z,12.23
2023-04-08T07:21:53.561Z,9.77
2023-04-08T07:26:56.785Z,10.37
2023-04-08T07:32:00.810Z,9.57
2023-04-08T07:37:03.721Z,9.33
2023-04-08T07:42:06.710Z,9.33
2023-04-08T07:47:11.919Z,8.80
2023-04-08T07:52:14.567Z,8.70
2023-04-08T07:57:17.250Z,7.83
2023-04-08T08:02:21.325Z,7.70
2023-04-08T08:07:24.071Z,7.77
2023-04-08T08:12:26.739Z,7.67
2023-04-08T08:17:33.528Z,7.00
2023-04-08T08:22:41.860Z,7.23
2023-04-08T08:27:53.373Z,6.87
2023-04-08T08:32:59.056Z,6.40
2023-04-08T08:38:01.763Z,6.57
2023-04-08T08:43:04.473Z,6.27
2023-04-08T08:48:10.089Z,6.17
2023-04-08T08:53:12.933Z,6.37
2023-04-08T08:58:15.705Z,6.83
2023-04-08T09:03:22.280Z,7.10
2023-04-08T09:08:26.758Z,6.67
2023-04-08T09:13:36.994Z,7.27
2023-04-08T09:18:44.330Z,7.63
2023-04-08T09:23:48.590Z,7.53
2023-04-08T09:29:10.991Z,7.70
2023-04-08T09:34:20.686Z,8.30
2023-04-08T09:39:23.401Z,8.30
2023-04-08T09:44:29.455Z,7.33
2023-04-08T09:49:39.149Z,7.87
2023-04-08T09:54:45.950Z,8.05
2023-04-08T09:59:53.668Z,8.47
2023-04-08T10:05:01.140Z,8.80
2023-04-08T10:10:04.731Z,9.17
2023-04-08T10:15:28.316Z,8.93
2023-04-08T10:20:45.834Z,8.23
2023-04-08T10:25:49.248Z,8.23
2023-04-08T10:30:53.088Z,8.37
2023-04-08T10:36:02.856Z,7.83
2023-04-08T10:41:05.875Z,7.10
2023-04-08T10:46:11.617Z,6.30
2023-04-08T10:51:15.777Z,7.10
2023-04-08T10:56:19.051Z,7.35
2023-04-08T11:01:22.207Z,7.13
2023-04-08T11:06:26.207Z,6.90
2023-04-08T11:11:29.788Z,8.40
2023-04-08T11:16:32.804Z,9.00
2023-04-08T11:21:40.261Z,9.30
2023-04-08T11:26:43.437Z,9.10
2023-04-08T11:31:47.273Z,9.40
2023-04-08T11:36:53.691Z,10.13
2023-04-08T11:41:57.437Z,10.13
2023-04-08T11:47:02.101Z,10.10
2023-04-08T11:52:06.254Z,10.07
2023-04-08T11:57:09.938Z,11.53
2023-04-08T12:02:12.731Z,12.20
2023-04-08T12:07:17.669Z,12.90
2023-04-08T12:12:20.326Z,12.60
2023-04-08T12:17:23.052Z,12.83
2023-04-08T12:22:27.076Z,13.10
2023-04-08T12:27:29.817Z,13.00
2023-04-08T12:32:33.596Z,13.15
2023-04-08T12:37:37.682Z,12.55
2023-04-08T12:42:40.635Z,12.93
2023-04-08T12:47:43.411Z,11.90
2023-04-08T12:52:47.434Z,12.13
2023-04-08T12:57:50.127Z,11.02
2023-04-08T13:02:52.926Z,10.85
2023-04-08T13:07:56.927Z,10.70
2023-04-08T13:12:59.565Z,11.63
2023-04-08T13:18:02.466Z,11.55
2023-04-08T13:23:06.518Z,10.82
2023-04-08T13:28:09.235Z,10.80
2023-04-08T13:33:11.905Z,10.57
2023-04-08T13:38:15.955Z,10.95
2023-04-08T13:43:18.612Z,9.90
2023-04-08T13:48:21.422Z,9.75
2023-04-08T13:53:25.461Z,8.95
2023-04-08T13:58:28.154Z,10.57
2023-04-08T14:03:30.851Z,9.10
2023-04-08T14:08:34.917Z,10.27
2023-04-08T14:13:37.606Z,10.07
2023-04-08T14:18:40.437Z,10.10
2023-04-08T14:23:44.397Z,10.48
2023-04-08T14:28:47.533Z,10.43
2023-04-08T14:33:50.350Z,11.00
2023-04-08T14:38:54.664Z,10.80
2023-04-08T14:43:57.474Z,10.30
2023-04-08T14:49:00.943Z,10.77
2023-04-08T14:54:05.750Z,10.40
2023-04-08T14:59:08.465Z,10.97
2023-04-08T15:04:11.405Z,10.03
2023-04-08T15:09:16.092Z,9.90
2023-04-08T15:14:18.896Z,9.77
2023-04-08T15:19:23.709Z,10.77
2023-04-08T15:24:30.331Z,11.90
2023-04-08T15:29:33.022Z,12.17
2023-04-08T15:34:35.757Z,12.27
2023-04-08T15:39:41.474Z,12.67
2023-04-08T15:44:44.147Z,12.77
2023-04-08T15:49:48.798Z,13.27
2023-04-08T15:54:52.856Z,13.57
2023-04-08T15:59:55.844Z,13.63
2023-04-08T16:04:58.552Z,12.57
2023-04-08T16:10:02.622Z,13.50
2023-04-08T16:15:06.162Z,12.67
2023-04-08T16:20:09.772Z,13.03
2023-04-08T16:25:14.905Z,12.67
2023-04-08T16:30:17.813Z,13.93
2023-04-08T16:35:22.263Z,13.50
2023-04-08T16:40:26.594Z,13.50
2023-04-08T16:45:30.538Z,12.90
2023-04-08T16:50:34.462Z,12.93
2023-04-08T16:55:38.938Z,12.83
2023-04-08T17:00:41.648Z,12.77
2023-04-08T17:05:44.399Z,13.57
2023-04-08T17:10:49.587Z,13.13
2023-04-08T17:15:52.618Z,13.67
2023-04-08T17:20:55.368Z,13.80
2023-04-08T17:26:01.695Z,14.47
2023-04-08T17:31:04.613Z,15.07
2023-04-08T17:36:07.747Z,15.00
2023-04-08T17:41:13.416Z,14.50
2023-04-08T17:46:17.306Z,14.37
2023-04-08T17:51:20.166Z,14.53
2023-04-08T17:56:24.653Z,14.73
2023-04-08T18:01:27.359Z,14.43
2023-04-08T18:06:31.902Z,15.13
2023-04-08T18:11:35.977Z,14.10
2023-04-08T18:16:39.657Z,14.13
2023-04-08T18:21:42.364Z,14.90
2023-04-08T18:26:49.148Z,14.20
2023-04-08T18:31:57.089Z,14.77
2023-04-08T18:37:00.733Z,14.50
2023-04-08T18:42:04.818Z,15.73
2023-04-08T18:47:07.525Z,15.63
2023-04-08T18:52:10.697Z,15.27
2023-04-08T19:22:33.658Z,14.50
2023-04-08T19:28:36.142Z,15.23
2023-04-08T19:34:05.169Z,15.43
2023-04-08T19:40:12.215Z,15.80
2023-04-08T19:51:54.534Z,17.13
2023-04-08T19:57:16.190Z,18.83
2023-04-08T20:02:25.263Z,18.40
2023-04-08T20:07:28.135Z,18.90
2023-04-08T20:12:39.100Z,20.17
2023-04-08T20:17:47.356Z,20.37
2023-04-08T20:22:50.544Z,20.53
2023-04-08T20:41:52.615Z,21.67
2023-04-08T20:47:09.937Z,23.37
2023-04-08T20:53:18.519Z,24.03
2023-04-08T20:59:46.273Z,23.90
2023-04-08T21:05:54.277Z,23.30
2023-04-08T21:18:01.110Z,23.87
2023-04-08T21:24:24.656Z,24.70
2023-04-08T22:09:20.662Z,23.63
2023-04-08T22:22:39.603Z,25.73
2023-04-08T23:48:45.701Z,22.57
2023-04-08T23:55:02.939Z,24.20
